Time;durP1;ratioP1;P1;durP2;ratioP2;P2;SDS_P1;SDS_P2;PMS_P1;PMS_P2;Temp;Humidity;BMP_temperature;BMP_pressure;BME280_temperature;BME280_humidity;BME280_pressure;Samples;Min_cycle;Max_cycle;Signal;HPM_P1;HPM_P2
2021/06/17 00:02:05;;;;;;;12.55;9.55;;;22.70;82.20;;;;;;5072098;28;20029;-66
2021/06/17 00:04:30;;;;;;;11.80;8.80;;;22.70;82.10;;;;;;5071949;28;20082;-66
2021/06/17 00:06:56;;;;;;;11.95;9.35;;;22.60;82.10;;;;;;5071949;28;20033;-65
2021/06/17 00:09:21;;;;;;;12.48;9.93;;;22.70;82.10;;;;;;5072057;28;20101;-64
2021/06/17 00:11:47;;;;;;;11.20;9.23;;;22.60;81.90;;;;;;5072030;28;20037;-64
2021/06/17 00:14:13;;;;;;;12.93;9.50;;;22.60;82.00;;;;;;5071623;28;20500;-67
2021/06/17 00:16:38;;;;;;;11.45;9.30;;;22.60;81.80;;;;;;5072020;28;20040;-64
2021/06/17 00:19:04;;;;;;;11.07;9.40;;;22.60;82.10;;;;;;5071889;28;20359;-66
2021/06/17 00:21:30;;;;;;;10.43;8.98;;;22.70;81.90;;;;;;5071781;28;20111;-64
2021/06/17 00:23:55;;;;;;;14.20;9.65;;;22.60;81.90;;;;;;5071601;28;20099;-63
2021/06/17 00:26:21;;;;;;;10.90;9.13;;;22.60;81.90;;;;;;5064777;28;20025;-64
2021/06/17 00:28:47;;;;;;;12.45;9.07;;;22.60;81.90;;;;;;5069545;28;20028;-64
2021/06/17 00:31:12;;;;;;;11.40;9.15;;;22.60;81.80;;;;;;5071500;28;20486;-64
2021/06/17 00:33:38;;;;;;;13.18;8.95;;;22.60;81.70;;;;;;5054927;28;20022;-64
2021/06/17 00:36:04;;;;;;;11.50;9.50;;;22.60;81.70;;;;;;5050416;28;20051;-64
2021/06/17 00:38:29;;;;;;;12.48;9.80;;;22.60;81.70;;;;;;5057760;28;20016;-62
2021/06/17 00:40:55;;;;;;;12.15;9.27;;;22.60;81.70;;;;;;5071358;28;20044;-63
2021/06/17 00:43:22;;;;;;;12.70;9.30;;;22.50;81.60;;;;;;5070335;28;20547;-64
2021/06/17 00:45:48;;;;;;;12.93;9.57;;;22.50;81.60;;;;;;5071669;28;20025;-65
2021/06/17 00:48:15;;;;;;;12.48;9.38;;;22.60;81.60;;;;;;5070215;28;20036;-61
2021/06/17 00:50:45;;;;;;;12.23;9.30;;;22.50;81.40;;;;;;5071497;28;20081;-64
2021/06/17 00:53:16;;;;;;;11.20;9.05;;;22.50;81.50;;;;;;5071434;28;20025;-65
2021/06/17 00:55:44;;;;;;;11.85;8.85;;;22.50;81.40;;;;;;5071527;28;20512;-64
2021/06/17 00:58:10;;;;;;;13.25;9.02;;;22.60;81.50;;;;;;5071515;28;20021;-64
2021/06/17 01:00:36;;;;;;;10.70;9.00;;;22.50;81.40;;;;;;5070187;28;20027;-65
2021/06/17 01:03:02;;;;;;;10.77;8.32;;;22.50;81.50;;;;;;5071332;28;20482;-65
2021/06/17 01:05:28;;;;;;;11.13;8.90;;;22.50;81.70;;;;;;5071089;28;20086;-62
2021/06/17 01:08:16;;;;;;;12.63;9.15;;;22.50;81.30;;;;;;5070220;28;20020;-65
2021/06/17 01:10:49;;;;;;;12.45;8.80;;;22.50;81.10;;;;;;5071392;28;20033;-64
2021/06/17 01:13:28;;;;;;;11.65;9.52;;;22.50;81.40;;;;;;5071021;28;20032;-64
2021/06/17 01:16:13;;;;;;;11.82;9.00;;;22.50;81.30;;;;;;5071437;28;20041;-64
2021/06/17 01:18:46;;;;;;;12.55;9.20;;;22.50;81.10;;;;;;5071400;28;20167;-61
2021/06/17 01:21:37;;;;;;;11.88;9.07;;;22.50;80.80;;;;;;5071215;28;20548;-62
2021/06/17 01:24:24;;;;;;;12.90;8.90;;;22.50;80.90;;;;;;5070993;28;20044;-68
2021/06/17 01:27:10;;;;;;;12.85;9.38;;;22.50;80.80;;;;;;5069962;28;20024;-65
2021/06/17 01:29:37;;;;;;;12.90;9.63;;;22.50;80.80;;;;;;5070851;28;20040;-63
2021/06/17 01:32:04;;;;;;;11.82;8.50;;;22.50;80.70;;;;;;5071137;28;20029;-64
2021/06/17 01:34:30;;;;;;;11.40;8.63;;;22.50;80.50;;;;;;5070706;28;20096;-64
2021/06/17 01:37:01;;;;;;;10.50;8.25;;;22.40;80.50;;;;;;5071203;28;20428;-64
2021/06/17 01:39:29;;;;;;;11.70;8.93;;;22.40;80.50;;;;;;5073382;28;20020;-62
2021/06/17 01:41:56;;;;;;;10.93;8.95;;;22.50;80.70;;;;;;5073315;28;20029;-63
2021/06/17 01:44:23;;;;;;;11.27;9.43;;;22.50;80.90;;;;;;5074468;28;20442;-62
2021/06/17 01:46:50;;;;;;;13.35;9.50;;;22.40;80.70;;;;;;5074821;28;20439;-63
2021/06/17 01:49:18;;;;;;;14.25;9.60;;;22.40;81.10;;;;;;5074691;28;20086;-64
2021/06/17 01:51:45;;;;;;;15.32;9.60;;;22.30;81.00;;;;;;5074695;28;20115;-64
2021/06/17 01:54:20;;;;;;;13.48;9.45;;;22.30;81.00;;;;;;5072995;28;20035;-65
2021/06/17 01:56:48;;;;;;;13.38;9.52;;;22.30;81.20;;;;;;5074583;28;20021;-65
2021/06/17 01:59:14;;;;;;;11.32;8.93;;;22.30;81.40;;;;;;5073214;28;20513;-64
2021/06/17 02:01:40;;;;;;;11.85;9.57;;;22.20;81.50;;;;;;5074476;28;20016;-66
2021/06/17 02:04:06;;;;;;;11.75;9.70;;;22.20;81.60;;;;;;5074219;28;20040;-63
2021/06/17 02:06:33;;;;;;;11.32;9.13;;;22.10;81.90;;;;;;5074481;28;20028;-66
2021/06/17 02:09:01;;;;;;;14.35;10.20;;;22.10;81.90;;;;;;5072978;28;20063;-66
2021/06/17 02:11:29;;;;;;;13.90;10.10;;;22.10;82.00;;;;;;5070344;28;20059;-62
2021/06/17 02:13:56;;;;;;;14.18;10.15;;;22.10;82.00;;;;;;5064017;28;20017;-64
2021/06/17 02:16:24;;;;;;;13.60;10.60;;;22.10;82.50;;;;;;5074097;28;20028;-64
2021/06/17 02:18:52;;;;;;;16.13;9.65;;;22.10;81.90;;;;;;5074179;28;20021;-65
2021/06/17 02:21:18;;;;;;;14.82;10.48;;;22.10;81.80;;;;;;5074100;28;20025;-64
2021/06/17 02:23:50;;;;;;;14.55;10.20;;;22.10;82.00;;;;;;5072490;28;20512;-67
2021/06/17 02:26:17;;;;;;;13.75;10.10;;;22.00;81.90;;;;;;5073980;28;20033;-66
2021/06/17 02:28:46;;;;;;;15.57;10.48;;;22.10;82.10;;;;;;5073760;28;20024;-64
2021/06/17 02:31:15;;;;;;;13.82;10.48;;;22.00;82.20;;;;;;5074050;28;20028;-65
2021/06/17 02:33:41;;;;;;;13.65;10.35;;;22.00;82.20;;;;;;5073401;28;20047;-65
2021/06/17 02:36:07;;;;;;;14.90;10.30;;;22.00;82.20;;;;;;5073838;28;20470;-66
2021/06/17 02:38:35;;;;;;;12.50;9.75;;;21.90;82.30;;;;;;5073797;28;20093;-65
2021/06/17 02:43:33;;;;;;;15.02;9.75;;;22.00;82.00;;;;;;5125258;22;20142;-63
2021/06/17 02:45:58;;;;;;;13.93;10.48;;;22.00;82.10;;;;;;5073336;28;20020;-61
2021/06/17 02:48:24;;;;;;;15.32;10.32;;;21.80;83.00;;;;;;5073454;28;20032;-62
2021/06/17 02:50:50;;;;;;;14.93;11.27;;;21.70;83.30;;;;;;5071196;28;20020;-63
2021/06/17 02:53:15;;;;;;;18.30;10.50;;;21.70;83.70;;;;;;5071896;28;20390;-63
2021/06/17 02:55:41;;;;;;;13.63;10.57;;;21.70;83.90;;;;;;5071966;28;20036;-61
2021/06/17 02:58:39;;;;;;;14.68;10.77;;;21.80;83.30;;;;;;5073393;28;20082;-61
2021/06/17 03:01:14;;;;;;;16.70;11.20;;;21.80;83.10;;;;;;5039501;28;20036;-61
2021/06/17 03:03:47;;;;;;;14.10;10.88;;;21.80;83.10;;;;;;5071727;28;20033;-64
2021/06/17 03:06:26;;;;;;;12.55;10.00;;;21.80;83.00;;;;;;5073185;28;20119;-62
2021/06/17 03:09:03;;;;;;;13.80;10.75;;;21.80;83.30;;;;;;5073288;28;20029;-61
2021/06/17 03:11:32;;;;;;;11.70;10.23;;;21.80;83.30;;;;;;5073078;28;20089;-62
2021/06/17 03:14:04;;;;;;;13.48;10.43;;;21.80;83.60;;;;;;5072817;28;20028;-61
2021/06/17 03:16:31;;;;;;;11.52;9.73;;;21.80;83.30;;;;;;5073074;28;20497;-63
2021/06/17 03:19:00;;;;;;;14.40;10.48;;;21.80;83.50;;;;;;5072926;28;20566;-63
2021/06/17 03:21:28;;;;;;;14.10;10.18;;;21.80;83.20;;;;;;5072806;28;20543;-61
2021/06/17 03:23:56;;;;;;;15.48;10.32;;;21.80;83.20;;;;;;5072629;28;20058;-61
2021/06/17 03:26:23;;;;;;;13.70;10.60;;;21.80;83.30;;;;;;5072851;28;20064;-62
2021/06/17 03:28:50;;;;;;;13.70;10.30;;;21.80;82.90;;;;;;5072855;28;20478;-61
2021/06/17 03:31:17;;;;;;;13.25;10.10;;;21.70;83.30;;;;;;5072526;28;20093;-63
2021/06/17 03:33:44;;;;;;;14.38;10.32;;;21.70;83.20;;;;;;5071005;28;20029;-61
2021/06/17 03:36:10;;;;;;;14.45;10.32;;;21.80;83.10;;;;;;5072658;28;20042;-65
2021/06/17 03:38:41;;;;;;;15.35;10.43;;;21.80;83.30;;;;;;5070777;28;20074;-62
2021/06/17 03:41:09;;;;;;;13.15;10.38;;;21.70;83.40;;;;;;5072466;28;20103;-61
2021/06/17 03:43:35;;;;;;;12.57;10.13;;;21.60;84.30;;;;;;5072044;28;20043;-64
2021/06/17 03:46:02;;;;;;;13.90;11.38;;;21.70;84.20;;;;;;5071040;28;20028;-61
2021/06/17 03:48:29;;;;;;;16.48;10.93;;;21.80;83.90;;;;;;5072448;28;20389;-62
2021/06/17 03:50:56;;;;;;;15.50;10.52;;;21.70;83.60;;;;;;5071062;28;20055;-62
2021/06/17 03:53:22;;;;;;;14.18;10.82;;;21.70;84.20;;;;;;5071926;28;20401;-61
2021/06/17 03:55:54;;;;;;;11.93;10.05;;;21.70;84.10;;;;;;5072416;28;20044;-62
2021/06/17 03:58:25;;;;;;;16.80;10.40;;;21.70;84.20;;;;;;5070923;28;20115;-62
2021/06/17 04:00:54;;;;;;;13.15;10.68;;;21.70;84.30;;;;;;5070198;28;20020;-63
2021/06/17 04:03:20;;;;;;;12.20;10.10;;;21.60;84.40;;;;;;5071624;28;20067;-62
2021/06/17 04:05:47;;;;;;;14.13;10.70;;;21.60;84.70;;;;;;5069961;28;20085;-62
2021/06/17 04:08:14;;;;;;;12.35;10.45;;;21.60;84.90;;;;;;5071816;28;20449;-61
2021/06/17 04:10:42;;;;;;;13.63;10.52;;;21.70;85.20;;;;;;5070304;28;20052;-62
2021/06/17 04:13:10;;;;;;;14.30;11.00;;;21.70;85.30;;;;;;5069291;28;20109;-62
2021/06/17 04:15:37;;;;;;;16.75;11.20;;;21.60;85.50;;;;;;5069021;28;20130;-64
2021/06/17 04:18:04;;;;;;;13.85;10.98;;;21.70;85.70;;;;;;5069713;28;20146;-61
2021/06/17 04:20:39;;;;;;;15.10;10.95;;;21.70;85.60;;;;;;5065246;28;20025;-62
2021/06/17 04:23:06;;;;;;;13.48;10.38;;;21.70;85.90;;;;;;5068443;28;20036;-62
2021/06/17 04:25:33;;;;;;;13.52;10.38;;;21.70;86.00;;;;;;5070748;28;20032;-61
2021/06/17 04:28:01;;;;;;;14.82;10.43;;;21.80;85.60;;;;;;5069079;28;20103;-63
2021/06/17 04:30:28;;;;;;;15.93;11.35;;;21.80;85.80;;;;;;5071001;28;20032;-63
2021/06/17 04:32:56;;;;;;;14.20;10.77;;;21.60;86.60;;;;;;5071268;28;20108;-61
2021/06/17 04:35:23;;;;;;;14.13;10.25;;;21.70;86.40;;;;;;5070233;28;20025;-62
2021/06/17 04:37:51;;;;;;;15.43;10.73;;;21.70;86.40;;;;;;5071389;28;20029;-64
2021/06/17 04:40:18;;;;;;;14.15;11.07;;;21.60;86.80;;;;;;5068134;28;20048;-64
2021/06/17 04:42:43;;;;;;;14.85;11.38;;;21.60;86.70;;;;;;5063214;28;20411;-65
2021/06/17 04:45:10;;;;;;;16.95;11.75;;;21.70;86.70;;;;;;5056947;28;20493;-65
2021/06/17 04:47:39;;;;;;;15.75;11.02;;;21.70;87.40;;;;;;5064828;28;20827;-63
2021/06/17 04:50:08;;;;;;;14.98;11.35;;;21.70;88.10;;;;;;5063772;28;20115;-67
2021/06/17 04:52:39;;;;;;;15.07;10.55;;;21.70;88.30;;;;;;5065103;28;20024;-60
2021/06/17 04:55:05;;;;;;;;;;;21.80;88.20;;;;;;5063937;28;20073;-62
2021/06/17 04:57:30;;;;;;;16.15;10.80;;;21.90;87.60;;;;;;5065151;28;20300;-62
2021/06/17 04:59:56;;;;;;;15.35;10.65;;;21.90;87.60;;;;;;5065172;28;20588;-63
2021/06/17 05:02:21;;;;;;;16.27;10.82;;;22.00;87.50;;;;;;5063735;28;20024;-63
2021/06/17 05:04:47;;;;;;;15.45;11.00;;;22.00;87.60;;;;;;5063948;28;20029;-65
2021/06/17 05:12:26;;;;;;;14.95;10.95;;;22.10;87.90;;;;;;5065351;28;20031;-64
2021/06/17 05:14:52;;;;;;;15.23;10.80;;;22.20;88.20;;;;;;5063559;28;20041;-65
2021/06/17 05:17:18;;;;;;;13.57;10.77;;;22.20;88.10;;;;;;5067479;28;20091;-62
2021/06/17 05:19:43;;;;;;;15.02;10.60;;;22.20;88.30;;;;;;5069048;28;20021;-65
2021/06/17 05:22:11;;;;;;;14.40;10.13;;;22.30;87.90;;;;;;5067294;28;20028;-62
2021/06/17 05:24:37;;;;;;;11.52;9.93;;;22.30;87.70;;;;;;5068555;28;20044;-64
2021/06/17 05:27:03;;;;;;;14.18;10.77;;;22.30;88.00;;;;;;5068846;28;20025;-62
2021/06/17 05:29:29;;;;;;;13.52;10.18;;;22.40;88.10;;;;;;5065335;28;20406;-66
2021/06/17 05:31:56;;;;;;;14.60;10.68;;;22.40;87.90;;;;;;5058569;28;20029;-66
2021/06/17 05:34:21;;;;;;;13.18;9.43;;;22.50;87.50;;;;;;5060168;28;20705;-64
2021/06/17 05:36:47;;;;;;;12.43;9.57;;;22.50;87.30;;;;;;5067075;28;20028;-62
2021/06/17 05:39:13;;;;;;;15.55;10.60;;;22.50;86.60;;;;;;5065894;28;20032;-70
2021/06/17 05:41:38;;;;;;;14.60;9.50;;;22.60;85.80;;;;;;5064865;28;20028;-63
2021/06/17 05:44:04;;;;;;;13.48;9.13;;;22.60;86.00;;;;;;5065414;28;20127;-61
2021/06/17 05:46:30;;;;;;;15.68;9.57;;;22.60;85.30;;;;;;5068145;28;20028;-65
2021/06/17 05:48:55;;;;;;;13.50;9.05;;;22.70;85.00;;;;;;5064685;28;20020;-63
2021/06/17 05:51:21;;;;;;;14.35;9.48;;;22.80;85.20;;;;;;5067742;28;20036;-63
2021/06/17 05:53:46;;;;;;;14.95;8.98;;;22.80;84.30;;;;;;5067827;28;20504;-62
2021/06/17 05:56:12;;;;;;;14.88;8.40;;;22.90;83.50;;;;;;5066596;28;20028;-67
2021/06/17 05:58:37;;;;;;;12.48;8.90;;;22.90;83.00;;;;;;5068053;28;20404;-65
2021/06/17 06:01:03;;;;;;;11.70;8.35;;;23.00;81.60;;;;;;5068061;28;20032;-65
2021/06/17 06:03:29;;;;;;;11.98;8.50;;;23.00;81.30;;;;;;5067440;28;20028;-65
2021/06/17 06:05:55;;;;;;;12.45;9.10;;;23.10;82.00;;;;;;5066747;28;20074;-66
2021/06/17 06:08:20;;;;;;;12.70;8.52;;;23.10;81.00;;;;;;5062249;28;20028;-62
2021/06/17 06:10:46;;;;;;;10.80;7.97;;;23.10;80.50;;;;;;5067471;28;20138;-63
2021/06/17 06:13:11;;;;;;;11.13;8.32;;;23.20;80.50;;;;;;5067160;28;20028;-62
2021/06/17 06:15:38;;;;;;;12.00;8.15;;;23.20;80.30;;;;;;5067606;28;20028;-63
2021/06/17 06:18:05;;;;;;;13.35;8.10;;;23.30;80.40;;;;;;5067009;28;20049;-65
2021/06/17 06:20:32;;;;;;;11.45;8.30;;;23.40;80.60;;;;;;5068222;28;20465;-63
2021/06/17 06:22:57;;;;;;;11.88;7.78;;;23.50;80.40;;;;;;5067971;28;20435;-62
2021/06/17 06:25:23;;;;;;;15.38;8.30;;;23.50;79.60;;;;;;5064562;28;20024;-65
2021/06/17 06:27:48;;;;;;;13.38;7.90;;;23.60;79.80;;;;;;5067401;28;20028;-63
2021/06/17 06:30:14;;;;;;;10.10;7.80;;;23.60;79.10;;;;;;5066351;28;20406;-63
2021/06/17 06:32:40;;;;;;;11.00;7.63;;;23.60;78.30;;;;;;5065717;28;20036;-65
2021/06/17 06:35:06;;;;;;;14.68;7.88;;;23.70;78.60;;;;;;5062828;28;20680;-65
2021/06/17 06:37:32;;;;;;;11.07;7.35;;;23.70;78.80;;;;;;5065809;28;20024;-64
2021/06/17 06:39:58;;;;;;;12.68;7.85;;;23.70;77.50;;;;;;5065449;28;20119;-67
2021/06/17 06:42:23;;;;;;;12.70;7.75;;;23.80;76.60;;;;;;5065148;28;20114;-64
2021/06/17 06:44:49;;;;;;;10.38;8.35;;;23.80;76.20;;;;;;5065644;28;20029;-67
2021/06/17 06:47:14;;;;;;;10.45;7.85;;;23.80;76.50;;;;;;5065923;28;20029;-63
2021/06/17 06:49:40;;;;;;;12.20;7.65;;;23.80;76.10;;;;;;5067233;28;20401;-64
2021/06/17 06:52:06;;;;;;;9.32;7.13;;;23.90;75.60;;;;;;5067184;28;20485;-65
2021/06/17 06:54:31;;;;;;;11.93;7.32;;;24.00;75.40;;;;;;5067432;28;20043;-64
2021/06/17 06:56:57;;;;;;;10.25;7.20;;;24.00;76.20;;;;;;5065839;28;20029;-67
2021/06/17 06:59:22;;;;;;;8.82;7.28;;;24.10;75.50;;;;;;5066177;28;20406;-66
2021/06/17 07:01:49;;;;;;;9.70;7.25;;;24.10;75.30;;;;;;5067457;28;20051;-65
2021/06/17 07:04:14;;;;;;;10.27;6.72;;;24.10;75.10;;;;;;5065754;28;20021;-66
2021/06/17 07:06:41;;;;;;;10.73;6.93;;;24.20;74.90;;;;;;5066217;28;20653;-65
2021/06/17 07:09:06;;;;;;;11.00;7.13;;;24.30;74.70;;;;;;5065728;28;20129;-67
2021/06/17 07:11:32;;;;;;;9.50;7.05;;;24.30;74.10;;;;;;5062657;28;20029;-66
2021/06/17 07:13:58;;;;;;;10.40;6.68;;;24.40;73.60;;;;;;5065307;28;20028;-66
2021/06/17 07:16:25;;;;;;;10.55;7.75;;;24.50;73.60;;;;;;5067212;28;20032;-66
2021/06/17 07:18:50;;;;;;;8.40;6.43;;;24.40;73.50;;;;;;5066765;28;20032;-65
2021/06/17 07:21:17;;;;;;;9.65;6.70;;;24.50;73.10;;;;;;5066784;28;20032;-65
2021/06/17 07:23:45;;;;;;;8.02;6.55;;;24.60;72.70;;;;;;5066803;28;20037;-66
2021/06/17 07:26:11;;;;;;;9.63;6.70;;;24.60;72.70;;;;;;5070208;28;20020;-65
2021/06/17 07:28:36;;;;;;;9.43;6.50;;;24.70;72.60;;;;;;5072643;28;20032;-64
2021/06/17 07:31:02;;;;;;;10.45;7.13;;;24.70;72.10;;;;;;5071428;28;20028;-66
2021/06/17 07:33:28;;;;;;;11.43;6.80;;;24.80;72.50;;;;;;5070697;28;20032;-66
2021/06/17 07:35:54;;;;;;;13.85;6.82;;;24.80;72.10;;;;;;5072035;28;20538;-64
2021/06/17 07:38:19;;;;;;;9.27;6.45;;;24.90;71.60;;;;;;5070908;28;20115;-64
2021/06/17 07:40:45;;;;;;;9.82;6.50;;;24.90;71.20;;;;;;5072622;28;20052;-64
2021/06/17 07:43:11;;;;;;;8.95;6.45;;;24.90;71.10;;;;;;5070301;28;20032;-64
2021/06/17 07:45:37;;;;;;;9.43;6.95;;;24.90;70.90;;;;;;5072042;28;20086;-65
2021/06/17 07:48:04;;;;;;;10.70;6.53;;;25.00;70.80;;;;;;5065430;28;20021;-64
2021/06/17 07:50:29;;;;;;;9.32;6.10;;;25.00;70.60;;;;;;5072343;28;20127;-64
2021/06/17 07:52:55;;;;;;;10.95;6.57;;;25.10;70.10;;;;;;5072251;28;20039;-64
2021/06/17 07:55:21;;;;;;;9.20;6.45;;;25.20;69.60;;;;;;5072126;28;20485;-66
2021/06/17 07:57:46;;;;;;;8.93;6.35;;;25.20;69.30;;;;;;5072213;28;20052;-63
2021/06/17 08:00:12;;;;;;;10.95;6.32;;;25.30;69.00;;;;;;5072303;28;20443;-63
2021/06/17 08:02:38;;;;;;;14.98;6.95;;;25.30;69.10;;;;;;5072340;28;20025;-64
2021/06/17 08:05:04;;;;;;;10.05;6.97;;;25.40;68.50;;;;;;5071888;28;20500;-66
2021/06/17 08:07:30;;;;;;;11.32;6.30;;;25.40;68.30;;;;;;5070857;28;20482;-64
2021/06/17 08:09:55;;;;;;;9.23;6.88;;;25.40;67.90;;;;;;5070763;28;20031;-63
2021/06/17 08:12:23;;;;;;;8.02;5.95;;;25.50;67.70;;;;;;5070698;28;20024;-62
2021/06/17 08:14:48;;;;;;;9.15;6.40;;;25.50;67.70;;;;;;5071717;28;20017;-63
2021/06/17 08:17:14;;;;;;;11.90;7.10;;;25.60;67.20;;;;;;5070693;28;20052;-66
2021/06/17 08:19:39;;;;;;;8.52;5.97;;;25.70;67.10;;;;;;5072009;28;20067;-62
2021/06/17 08:22:07;;;;;;;12.55;6.43;;;25.80;67.00;;;;;;5071832;28;20056;-63
2021/06/17 08:24:36;;;;;;;11.02;6.25;;;25.80;66.50;;;;;;5071864;28;20405;-65
2021/06/17 08:27:03;;;;;;;9.85;6.10;;;25.80;66.50;;;;;;5070503;28;20025;-64
2021/06/17 08:29:28;;;;;;;9.30;6.20;;;25.90;66.20;;;;;;5071841;28;20039;-64
2021/06/17 08:31:54;;;;;;;9.23;5.80;;;26.00;66.00;;;;;;5071733;28;20028;-64
2021/06/17 08:34:20;;;;;;;9.63;5.95;;;26.00;65.70;;;;;;5071532;28;20052;-64
2021/06/17 08:36:46;;;;;;;9.57;6.00;;;26.00;65.70;;;;;;5071811;28;20017;-64
2021/06/17 08:39:11;;;;;;;9.45;6.10;;;26.00;65.40;;;;;;5069896;28;20033;-66
2021/06/17 08:41:46;;;;;;;10.85;6.13;;;26.10;65.40;;;;;;5071882;28;20028;-65
2021/06/17 08:44:12;;;;;;;9.18;5.93;;;26.10;65.40;;;;;;5071470;28;20028;-64
2021/06/17 08:46:39;;;;;;;8.75;6.07;;;26.20;65.10;;;;;;5070376;28;20032;-64
2021/06/17 08:49:04;;;;;;;8.60;5.85;;;26.20;64.70;;;;;;5070833;28;20064;-63
2021/06/17 08:51:32;;;;;;;9.60;5.93;;;26.30;64.40;;;;;;5070247;28;20055;-64
2021/06/17 08:53:58;;;;;;;9.77;6.28;;;26.40;64.30;;;;;;5071185;28;20081;-64
2021/06/17 08:56:25;;;;;;;9.25;5.88;;;26.30;63.90;;;;;;5071596;28;20021;-64
2021/06/17 08:58:57;;;;;;;9.23;5.97;;;26.40;64.00;;;;;;5070272;28;20032;-64
2021/06/17 09:01:22;;;;;;;9.05;5.70;;;26.40;64.00;;;;;;5071530;28;20517;-64
2021/06/17 09:03:48;;;;;;;10.15;5.65;;;26.40;63.70;;;;;;5071259;28;20036;-63
2021/06/17 09:06:22;;;;;;;9.20;5.47;;;26.50;63.50;;;;;;5071292;28;20032;-64
2021/06/17 09:09:03;;;;;;;8.15;5.35;;;26.60;63.40;;;;;;5071595;28;20032;-64
2021/06/17 09:11:29;;;;;;;8.93;5.15;;;26.60;63.10;;;;;;5070069;28;20028;-64
2021/06/17 09:14:14;;;;;;;7.57;4.90;;;26.60;62.90;;;;;;5069964;28;20616;-64
2021/06/17 09:16:40;;;;;;;7.80;5.32;;;26.70;62.80;;;;;;5071250;28;20023;-64
2021/06/17 09:19:05;;;;;;;8.30;5.45;;;26.60;62.60;;;;;;5071359;28;20017;-63
2021/06/17 09:21:31;;;;;;;9.23;5.57;;;26.80;62.50;;;;;;5071289;28;20025;-63
2021/06/17 09:23:58;;;;;;;8.90;5.15;;;26.80;62.30;;;;;;5071015;28;20029;-64
2021/06/17 09:26:24;;;;;;;9.35;5.20;;;26.90;62.00;;;;;;5070013;28;20370;-64
2021/06/17 09:29:09;;;;;;;9.73;5.25;;;26.90;61.80;;;;;;5071358;28;20030;-63
2021/06/17 09:31:44;;;;;;;8.05;5.32;;;26.90;61.90;;;;;;5069967;28;20025;-64
2021/06/17 09:34:11;;;;;;;8.80;5.38;;;27.00;61.70;;;;;;5069781;28;20440;-63
2021/06/17 09:36:39;;;;;;;8.98;5.30;;;27.00;61.50;;;;;;5071290;28;20028;-64
2021/06/17 09:39:14;;;;;;;7.88;4.90;;;27.10;61.40;;;;;;5070870;28;20020;-64
2021/06/17 09:41:42;;;;;;;7.90;5.10;;;27.10;61.30;;;;;;5069644;28;20115;-63
2021/06/17 09:44:28;;;;;;;8.10;5.45;;;27.10;61.10;;;;;;5069532;28;20485;-63
2021/06/17 09:47:11;;;;;;;7.45;5.15;;;27.20;60.80;;;;;;5071082;28;20032;-63
2021/06/17 09:49:41;;;;;;;8.27;5.30;;;27.30;60.70;;;;;;5071122;28;20382;-63
2021/06/17 09:52:08;;;;;;;8.75;5.72;;;27.30;60.40;;;;;;5070857;28;20029;-63
2021/06/17 09:54:36;;;;;;;7.82;4.68;;;27.40;60.40;;;;;;5070659;28;20485;-63
2021/06/17 09:57:15;;;;;;;9.68;5.32;;;27.40;60.20;;;;;;5071022;28;20371;-63
2021/06/17 09:59:50;;;;;;;8.35;5.28;;;27.50;59.90;;;;;;5072036;28;20021;-63
2021/06/17 10:02:23;;;;;;;7.32;4.65;;;27.60;59.70;;;;;;5074406;28;20389;-63
2021/06/17 10:04:50;;;;;;;8.60;5.10;;;27.50;59.60;;;;;;5073020;28;20043;-63
2021/06/17 10:07:19;;;;;;;7.40;5.20;;;27.60;59.60;;;;;;5073151;28;20028;-63
2021/06/17 10:09:46;;;;;;;7.40;5.45;;;27.60;59.50;;;;;;5074432;28;20095;-63
2021/06/17 10:12:12;;;;;;;8.50;5.38;;;27.60;59.20;;;;;;5074326;28;20039;-63
2021/06/17 10:14:38;;;;;;;7.97;4.97;;;27.70;59.10;;;;;;5073968;28;20551;-63
2021/06/17 10:17:04;;;;;;;7.70;5.30;;;27.80;59.00;;;;;;5074179;28;20032;-63
2021/06/17 10:19:33;;;;;;;9.35;5.10;;;27.80;58.70;;;;;;5074249;28;20048;-63
2021/06/17 10:22:01;;;;;;;8.13;4.90;;;27.90;58.80;;;;;;5072772;28;20024;-63
2021/06/17 10:24:29;;;;;;;7.80;4.90;;;27.80;58.70;;;;;;5073905;28;20501;-64
2021/06/17 10:27:05;;;;;;;8.18;5.15;;;27.90;58.70;;;;;;5072485;28;20046;-64
2021/06/17 10:29:42;;;;;;;7.72;4.72;;;27.90;58.40;;;;;;5072742;28;20024;-64
2021/06/17 10:32:15;;;;;;;7.60;5.15;;;28.00;58.30;;;;;;5073983;28;20103;-64
2021/06/17 10:34:46;;;;;;;8.25;5.20;;;28.10;58.00;;;;;;5073538;28;20050;-62
2021/06/17 10:37:12;;;;;;;;;;;28.10;58.10;;;;;;5073911;28;20043;-64
2021/06/17 10:40:05;;;;;;;8.93;5.10;;;28.10;57.80;;;;;;5073905;28;19904;-65
2021/06/17 10:42:32;;;;;;;6.88;4.82;;;28.20;57.60;;;;;;5073680;28;20033;-63
2021/06/17 10:45:37;;;;;;;7.43;5.00;;;28.30;57.60;;;;;;5070937;28;20035;-63
2021/06/17 10:48:07;;;;;;;7.22;4.57;;;28.00;58.30;;;;;;5058046;28;20063;-64
2021/06/17 10:50:51;;;;;;;6.35;4.18;;;28.30;57.10;;;;;;5073741;28;20055;-64
2021/06/17 10:53:28;;;;;;;7.90;4.90;;;28.40;56.50;;;;;;5073224;28;20032;-61
2021/06/17 10:55:53;;;;;;;6.68;4.35;;;28.50;56.60;;;;;;5072246;28;20025;-62
2021/06/17 10:58:41;;;;;;;6.47;4.38;;;28.50;55.80;;;;;;5072180;28;20027;-63
2021/06/17 11:01:40;;;;;;;6.60;4.25;;;28.60;55.60;;;;;;5073305;28;20028;-62
2021/06/17 11:04:25;;;;;;;;;;;28.70;54.30;;;;;;5073477;28;20545;-63
2021/06/17 11:07:02;;;;;;;7.32;4.50;;;28.80;54.60;;;;;;5071979;28;20377;-63
2021/06/17 11:09:34;;;;;;;7.70;3.92;;;28.80;54.60;;;;;;5072187;28;20040;-63
2021/06/17 11:12:01;;;;;;;6.88;3.72;;;28.80;54.60;;;;;;5071171;28;20090;-63
2021/06/17 11:14:26;;;;;;;7.15;3.80;;;28.80;54.30;;;;;;5072650;28;20025;-63
2021/06/17 11:16:55;;;;;;;7.57;4.30;;;28.90;54.30;;;;;;5073010;28;20054;-63
2021/06/17 11:19:21;;;;;;;8.13;4.18;;;28.70;55.00;;;;;;5072223;28;20048;-65
2021/06/17 11:21:47;;;;;;;6.63;3.70;;;28.90;53.70;;;;;;5074568;28;20027;-66
2021/06/17 11:24:17;;;;;;;6.88;4.10;;;29.00;51.60;;;;;;5072444;28;20081;-66
2021/06/17 11:26:44;;;;;;;9.38;4.05;;;29.00;52.20;;;;;;5072791;28;20055;-65
2021/06/17 11:29:39;;;;;;;6.63;4.30;;;29.10;52.80;;;;;;5072456;28;20101;-63
2021/06/17 11:32:30;;;;;;;6.65;3.97;;;28.50;52.90;;;;;;5067812;28;20405;-62
2021/06/17 11:34:56;;;;;;;11.48;3.95;;;27.90;54.80;;;;;;5072506;28;20101;-63
2021/06/17 11:37:27;;;;;;;7.68;4.22;;;27.40;57.30;;;;;;5072525;28;20029;-63
2021/06/17 11:39:52;;;;;;;7.28;3.85;;;27.00;57.90;;;;;;5072861;28;20021;-63
2021/06/17 11:42:22;;;;;;;9.13;3.97;;;26.80;58.50;;;;;;5072556;28;20489;-64
2021/06/17 11:44:58;;;;;;;6.72;4.15;;;26.70;60.00;;;;;;5072342;28;20494;-63
2021/06/17 11:47:23;;;;;;;7.85;3.95;;;26.50;61.40;;;;;;5070642;28;20107;-64
2021/06/17 11:49:49;;;;;;;8.43;4.10;;;26.30;62.10;;;;;;5071224;28;20021;-63
2021/06/17 11:52:17;;;;;;;8.60;4.38;;;26.20;62.80;;;;;;5072335;28;20393;-64
2021/06/17 11:54:48;;;;;;;6.03;3.78;;;26.10;62.90;;;;;;5072057;28;20063;-63
2021/06/17 11:57:15;;;;;;;6.35;4.18;;;26.10;63.60;;;;;;5072313;28;20052;-63
2021/06/17 11:59:48;;;;;;;6.78;4.20;;;26.00;63.70;;;;;;5071019;28;20029;-64
2021/06/17 12:02:26;;;;;;;8.05;4.13;;;26.00;64.20;;;;;;5072243;28;20470;-64
2021/06/17 12:04:56;;;;;;;8.82;4.05;;;25.90;64.30;;;;;;5071917;28;20028;-64
2021/06/17 12:07:32;;;;;;;6.40;4.00;;;25.90;64.50;;;;;;5072192;28;20024;-65
2021/06/17 12:10:17;;;;;;;7.10;3.90;;;25.90;64.70;;;;;;5072174;28;20032;-63
2021/06/17 12:12:50;;;;;;;8.05;3.92;;;25.90;64.70;;;;;;5069711;28;20105;-63
2021/06/17 12:15:39;;;;;;;6.32;3.80;;;25.90;64.90;;;;;;5069438;28;20393;-66
2021/06/17 12:18:07;;;;;;;7.03;3.60;;;25.90;65.40;;;;;;5071951;28;20021;-63
2021/06/17 12:20:36;;;;;;;7.32;3.95;;;25.80;65.50;;;;;;5066490;28;20028;-62
2021/06/17 12:23:10;;;;;;;6.78;3.80;;;25.80;65.60;;;;;;5071788;28;20051;-61
2021/06/17 12:25:43;;;;;;;5.93;3.63;;;25.80;65.90;;;;;;5071506;28;20055;-61
2021/06/17 12:28:10;;;;;;;6.05;3.65;;;25.70;66.10;;;;;;5070656;28;20078;-62
2021/06/17 12:30:46;;;;;;;5.47;3.75;;;25.70;66.20;;;;;;5071808;28;20547;-62
2021/06/17 12:33:26;;;;;;;6.22;3.88;;;25.70;66.20;;;;;;5071513;28;20074;-63
2021/06/17 12:36:01;;;;;;;6.03;3.70;;;25.70;66.30;;;;;;5071762;28;20017;-62
2021/06/17 12:38:35;;;;;;;5.47;3.58;;;25.70;66.50;;;;;;5070483;28;20394;-62
2021/06/17 12:41:23;;;;;;;5.57;3.40;;;25.70;66.50;;;;;;5071748;28;20042;-63
2021/06/17 12:43:53;;;;;;;6.00;3.50;;;25.70;66.80;;;;;;5071349;28;20110;-63
2021/06/17 12:46:37;;;;;;;6.13;4.00;;;25.70;66.80;;;;;;5071708;28;20021;-68
2021/06/17 12:54:32;;;;;;;7.75;4.07;;;25.70;67.00;;;;;;5071462;28;20115;-63
2021/06/17 12:57:05;;;;;;;;;;;25.70;67.20;;;;;;5072066;28;20429;-64
2021/06/17 12:59:40;;;;;;;9.45;4.20;;;25.70;67.50;;;;;;5070255;28;20289;-62
2021/06/17 13:02:10;;;;;;;7.50;4.07;;;25.70;67.60;;;;;;5070428;28;20460;-62
2021/06/17 13:04:37;;;;;;;6.47;3.80;;;25.60;67.50;;;;;;5071079;28;20025;-63